createdAt,value
2019-01-13T00:00:56.826Z,0.00
2019-01-13T00:01:56.802Z,0.00
2019-01-13T00:02:56.790Z,0.00
2019-01-13T00:03:56.801Z,0.00
2019-01-13T00:04:56.801Z,0.00
2019-01-13T00:05:56.777Z,0.00
2019-01-13T00:06:56.799Z,0.00
2019-01-13T00:07:56.736Z,0.00
2019-01-13T00:08:56.750Z,0.00
2019-01-13T00:09:56.719Z,0.00
2019-01-13T00:10:56.713Z,0.00
2019-01-13T00:11:56.705Z,0.00
2019-01-13T00:12:56.679Z,0.00
2019-01-13T00:13:56.712Z,0.00
2019-01-13T00:14:56.723Z,0.00
2019-01-13T00:15:56.650Z,0.00
2019-01-13T00:16:56.679Z,0.00
2019-01-13T00:17:56.676Z,0.00
2019-01-13T00:18:56.649Z,0.00
2019-01-13T00:19:56.616Z,0.00
2019-01-13T00:20:56.597Z,0.00
2019-01-13T00:21:56.576Z,0.00
2019-01-13T00:22:56.584Z,0.00
2019-01-13T00:23:56.576Z,0.00
2019-01-13T00:24:56.559Z,0.00
2019-01-13T00:25:56.550Z,0.00
2019-01-13T00:26:56.540Z,0.00
2019-01-13T00:27:56.533Z,0.00
2019-01-13T00:28:56.531Z,0.00
2019-01-13T00:29:56.496Z,0.00
2019-01-13T00:30:56.526Z,0.00
2019-01-13T00:31:56.482Z,0.00
2019-01-13T00:32:56.475Z,0.00
2019-01-13T00:33:56.467Z,0.00
2019-01-13T00:34:56.453Z,0.00
2019-01-13T00:35:56.447Z,0.00
2019-01-13T00:36:56.477Z,0.00
2019-01-13T00:37:56.431Z,0.00
2019-01-13T00:38:56.416Z,0.00
2019-01-13T00:39:56.476Z,0.00
2019-01-13T00:40:56.386Z,0.00
2019-01-13T00:41:56.376Z,0.00
2019-01-13T00:42:56.371Z,0.00
2019-01-13T00:43:56.366Z,0.00
2019-01-13T00:44:56.345Z,0.00
2019-01-13T00:45:56.323Z,0.00
2019-01-13T00:46:56.360Z,0.00
2019-01-13T00:47:56.317Z,0.00
2019-01-13T00:48:56.321Z,0.00
2019-01-13T00:49:56.329Z,0.00
2019-01-13T00:50:56.267Z,0.00
2019-01-13T00:51:56.256Z,0.00
2019-01-13T00:52:56.260Z,0.00
2019-01-13T00:53:56.254Z,0.00
2019-01-13T00:54:56.240Z,0.00
2019-01-13T00:55:56.232Z,0.00
2019-01-13T00:56:56.283Z,0.00
2019-01-13T00:57:56.246Z,0.00
2019-01-13T00:58:56.208Z,0.00
2019-01-13T00:59:56.247Z,0.00
2019-01-13T01:00:56.163Z,0.00
2019-01-13T01:01:56.179Z,0.00
2019-01-13T01:02:56.140Z,0.00
2019-01-13T01:03:56.154Z,0.00
2019-01-13T01:04:56.129Z,0.00
2019-01-13T01:05:56.109Z,0.00
2019-01-13T01:06:56.100Z,0.00
2019-01-13T01:07:56.091Z,0.00
2019-01-13T01:08:56.104Z,0.00
2019-01-13T01:09:56.065Z,0.00
2019-01-13T01:10:56.054Z,0.00
2019-01-13T01:11:56.045Z,0.00
2019-01-13T01:12:56.972Z,0.00
2019-01-13T01:13:56.042Z,0.00
2019-01-13T01:14:56.021Z,0.00
2019-01-13T01:15:56.000Z,0.00
2019-01-13T01:16:56.025Z,0.00
2019-01-13T01:17:55.988Z,0.00
2019-01-13T01:18:56.005Z,0.00
2019-01-13T01:19:56.005Z,0.00
2019-01-13T01:20:55.940Z,0.00
2019-01-13T01:21:55.944Z,0.00
2019-01-13T01:22:55.931Z,0.00
2019-01-13T01:23:55.932Z,0.00
2019-01-13T01:26:05.123Z,0.00
2019-01-13T01:27:06.104Z,0.00
2019-01-13T01:28:06.088Z,0.00
2019-01-13T01:29:06.057Z,0.00
2019-01-13T01:30:06.874Z,0.00
2019-01-13T01:31:06.080Z,0.00
2019-01-13T01:32:06.039Z,0.00
2019-01-13T01:33:06.028Z,0.00
2019-01-13T01:34:06.022Z,0.00
2019-01-13T01:35:06.001Z,0.00
2019-01-13T01:36:05.996Z,0.00
2019-01-13T01:37:05.974Z,0.00
2019-01-13T01:38:05.960Z,0.00
2019-01-13T01:39:05.960Z,0.00
2019-01-13T01:40:05.952Z,0.00
2019-01-13T01:41:05.930Z,0.00
2019-01-13T01:42:05.952Z,0.00
2019-01-13T01:43:05.914Z,0.00
2019-01-13T01:44:05.903Z,0.00
2019-01-13T01:45:05.894Z,0.00
2019-01-13T01:46:05.891Z,0.00
2019-01-13T01:47:05.885Z,0.00
2019-01-13T01:48:05.918Z,0.00
2019-01-13T01:49:05.849Z,0.00
2019-01-13T01:50:05.860Z,0.00
2019-01-13T01:51:05.833Z,0.00
2019-01-13T01:52:05.823Z,0.00
2019-01-13T01:53:05.815Z,0.00
2019-01-13T01:54:05.790Z,0.00
2019-01-13T01:55:05.811Z,0.00
2019-01-13T01:56:05.774Z,0.00
2019-01-13T01:57:05.780Z,0.00
2019-01-13T01:58:05.821Z,0.00
2019-01-13T01:59:05.758Z,0.00
2019-01-13T02:00:05.752Z,0.00
2019-01-13T02:01:05.722Z,0.00
2019-01-13T02:02:05.724Z,0.00
2019-01-13T02:03:05.698Z,0.00
2019-01-13T02:04:05.708Z,0.00
2019-01-13T02:05:05.675Z,0.00
2019-01-13T02:06:05.717Z,0.00
2019-01-13T02:07:05.735Z,0.00
2019-01-13T02:08:05.704Z,0.00
2019-01-13T02:09:05.637Z,0.00
2019-01-13T02:10:05.628Z,0.00
2019-01-13T02:11:05.613Z,0.00
2019-01-13T02:12:05.623Z,0.00
2019-01-13T02:13:05.598Z,0.00
2019-01-13T02:14:05.587Z,0.00
2019-01-13T02:15:05.576Z,0.00
2019-01-13T02:16:05.551Z,0.00
2019-01-13T02:17:05.564Z,0.00
2019-01-13T02:18:05.546Z,0.00
2019-01-13T02:19:05.555Z,0.00
2019-01-13T02:20:05.529Z,0.00
2019-01-13T02:21:05.531Z,0.00
2019-01-13T02:22:05.519Z,0.00
2019-01-13T02:23:05.541Z,0.00
2019-01-13T02:24:05.472Z,0.00
2019-01-13T02:25:05.458Z,0.00
2019-01-13T02:26:05.450Z,0.00
2019-01-13T02:27:05.470Z,0.00
2019-01-13T02:28:05.452Z,0.00
2019-01-13T02:29:05.425Z,0.00
2019-01-13T02:30:05.424Z,0.00
2019-01-13T02:31:05.410Z,0.00
2019-01-13T02:32:05.389Z,0.00
2019-01-13T02:33:05.450Z,0.00
2019-01-13T02:34:05.392Z,0.00
2019-01-13T02:35:05.392Z,0.00
2019-01-13T02:36:05.372Z,0.00
2019-01-13T02:37:05.343Z,0.00
2019-01-13T02:38:05.851Z,0.00
2019-01-13T02:39:05.895Z,0.00
2019-01-13T02:40:05.345Z,0.00
2019-01-13T02:41:05.325Z,0.00
2019-01-13T02:42:05.843Z,0.00
2019-01-13T02:43:05.387Z,0.00
2019-01-13T02:44:05.317Z,0.00
2019-01-13T02:45:05.378Z,0.00
2019-01-13T02:46:05.238Z,0.00
2019-01-13T02:47:05.221Z,0.00
2019-01-13T02:48:05.277Z,0.00
2019-01-13T02:49:05.209Z,0.00
2019-01-13T02:50:05.208Z,0.00
2019-01-13T02:51:05.197Z,0.00
2019-01-13T02:52:05.178Z,0.00
2019-01-13T02:53:05.180Z,0.00
2019-01-13T02:54:05.159Z,0.00
2019-01-13T02:55:05.140Z,0.00
2019-01-13T02:56:05.124Z,0.00
2019-01-13T02:57:05.120Z,0.00
2019-01-13T02:58:05.125Z,0.00
2019-01-13T02:59:05.110Z,0.00
2019-01-13T03:00:05.105Z,0.00
2019-01-13T03:01:05.106Z,0.00
2019-01-13T03:02:05.057Z,0.00
2019-01-13T03:03:05.070Z,0.00
2019-01-13T03:04:05.070Z,0.00
2019-01-13T03:05:05.041Z,0.00
2019-01-13T03:06:05.030Z,0.00
2019-01-13T03:07:05.014Z,0.00
2019-01-13T03:08:05.017Z,0.00
2019-01-13T03:09:05.002Z,0.00
2019-01-13T03:10:05.009Z,0.00
2019-01-13T03:11:04.973Z,0.00
2019-01-13T03:12:04.964Z,0.00
2019-01-13T03:13:04.967Z,0.00
2019-01-13T03:14:04.972Z,0.00
2019-01-13T03:15:04.929Z,0.00
2019-01-13T03:16:04.912Z,0.00
2019-01-13T03:17:04.904Z,0.00
2019-01-13T03:18:04.903Z,0.00
2019-01-13T03:19:04.909Z,0.00
2019-01-13T03:20:04.878Z,0.00
2019-01-13T03:21:04.875Z,0.00
2019-01-13T03:22:05.815Z,0.00
2019-01-13T03:23:04.844Z,0.00
2019-01-13T03:24:04.848Z,0.00
2019-01-13T03:25:04.828Z,0.00
2019-01-13T03:27:14.016Z,0.00
2019-01-13T03:28:15.007Z,0.00
2019-01-13T03:29:15.008Z,0.00
2019-01-13T03:30:14.973Z,0.00
2019-01-13T03:31:14.984Z,0.00
2019-01-13T03:32:14.968Z,0.00
2019-01-13T03:33:14.937Z,0.00
2019-01-13T03:34:14.958Z,0.00
2019-01-13T03:35:14.916Z,0.00
2019-01-13T03:36:14.912Z,0.00
2019-01-13T03:37:14.914Z,0.00
2019-01-13T03:38:14.897Z,0.00
2019-01-13T03:39:14.905Z,0.00
2019-01-13T03:40:15.255Z,0.00
2019-01-13T03:41:14.852Z,0.00
2019-01-13T03:42:14.852Z,0.00
2019-01-13T03:43:14.846Z,0.00
2019-01-13T03:44:14.843Z,0.00
2019-01-13T03:45:14.816Z,0.00
2019-01-13T03:46:14.804Z,0.00
2019-01-13T03:47:14.786Z,0.00
2019-01-13T03:48:14.779Z,0.00
2019-01-13T03:49:14.800Z,0.00
2019-01-13T03:50:14.767Z,0.00
2019-01-13T03:51:14.746Z,0.00
2019-01-13T03:52:14.749Z,0.00
2019-01-13T03:53:14.733Z,0.00
2019-01-13T03:54:14.730Z,0.00
2019-01-13T03:55:14.722Z,0.00
2019-01-13T03:56:14.698Z,0.00
2019-01-13T03:57:14.689Z,0.00
2019-01-13T03:58:14.672Z,0.00
2019-01-13T03:59:14.678Z,0.00
2019-01-13T04:00:14.666Z,0.00
2019-01-13T04:01:18.653Z,0.00
2019-01-13T04:02:14.635Z,0.00
2019-01-13T04:03:14.622Z,0.00
2019-01-13T04:04:14.620Z,0.00
2019-01-13T04:05:14.635Z,0.00
2019-01-13T04:06:14.589Z,0.00
2019-01-13T04:07:14.575Z,0.00
2019-01-13T04:08:14.566Z,0.00
2019-01-13T04:09:14.568Z,0.00
2019-01-13T04:10:14.569Z,0.00
2019-01-13T04:11:14.545Z,0.00
2019-01-13T04:12:14.585Z,0.00
2019-01-13T04:13:14.512Z,0.00
2019-01-13T04:14:14.510Z,0.00
2019-01-13T04:15:14.517Z,0.00
2019-01-13T04:16:14.490Z,0.00
2019-01-13T04:17:14.475Z,0.00
2019-01-13T04:18:14.460Z,0.00
2019-01-13T04:19:14.444Z,0.00
2019-01-13T04:20:14.449Z,0.00
2019-01-13T04:21:14.437Z,0.00
2019-01-13T04:22:14.423Z,0.00
2019-01-13T04:23:14.403Z,0.00
2019-01-13T04:24:14.406Z,0.00
2019-01-13T04:25:14.408Z,0.00
2019-01-13T04:26:14.371Z,0.00
2019-01-13T04:27:14.368Z,0.00
2019-01-13T04:28:14.362Z,0.00
2019-01-13T04:29:14.349Z,0.00
2019-01-13T04:30:14.349Z,0.00
2019-01-13T04:31:14.322Z,0.00
2019-01-13T04:32:14.317Z,0.00
2019-01-13T04:33:14.299Z,0.00
2019-01-13T04:34:14.297Z,0.00
2019-01-13T04:35:14.296Z,0.00
2019-01-13T04:36:14.288Z,0.00
2019-01-13T04:37:14.261Z,0.00
2019-01-13T04:38:14.251Z,0.00
2019-01-13T04:39:14.241Z,0.00
2019-01-13T04:40:14.252Z,0.00
2019-01-13T04:41:14.211Z,0.00
2019-01-13T04:42:14.209Z,0.00
2019-01-13T04:43:14.188Z,0.00
2019-01-13T04:44:14.199Z,0.00
2019-01-13T04:45:14.192Z,0.00
2019-01-13T04:46:14.184Z,0.00
2019-01-13T04:47:14.156Z,0.00
2019-01-13T04:48:14.147Z,0.00
2019-01-13T04:49:14.125Z,0.00
2019-01-13T04:50:14.141Z,0.00
2019-01-13T04:51:14.112Z,0.00
2019-01-13T04:52:14.117Z,0.00
2019-01-13T04:53:14.091Z,0.00
2019-01-13T04:54:14.083Z,0.00
2019-01-13T04:55:14.076Z,0.00
2019-01-13T04:56:14.056Z,0.00
2019-01-13T04:57:14.054Z,0.00
2019-01-13T04:58:14.024Z,0.00
2019-01-13T04:59:14.016Z,0.00
2019-01-13T05:00:14.002Z,0.00
2019-01-13T05:01:14.005Z,0.00
2019-01-13T05:02:13.991Z,0.00
2019-01-13T05:03:13.979Z,0.00
2019-01-13T05:04:13.970Z,0.00
2019-01-13T05:05:13.965Z,0.00
2019-01-13T05:06:13.969Z,0.00
2019-01-13T05:07:13.952Z,0.00
2019-01-13T05:08:13.960Z,0.00
2019-01-13T05:09:14.113Z,0.00
2019-01-13T05:10:13.896Z,0.00
2019-01-13T05:11:13.909Z,0.00
2019-01-13T05:12:13.890Z,0.00
2019-01-13T05:13:13.869Z,0.00
2019-01-13T05:14:13.871Z,0.00
2019-01-13T05:15:13.858Z,0.00
2019-01-13T05:16:13.869Z,0.00
2019-01-13T05:17:13.868Z,0.00
2019-01-13T05:18:13.817Z,0.00
2019-01-13T05:19:13.827Z,0.00
2019-01-13T05:20:13.797Z,0.00
2019-01-13T05:21:13.808Z,0.00
2019-01-13T05:22:13.772Z,0.00
2019-01-13T05:23:13.768Z,0.00
2019-01-13T05:24:13.749Z,0.00
2019-01-13T05:25:13.736Z,0.00
2019-01-13T05:26:13.763Z,0.00
2019-01-13T05:28:22.954Z,0.00
2019-01-13T05:29:23.916Z,0.00
2019-01-13T05:30:23.889Z,0.00
2019-01-13T05:31:23.913Z,0.00
2019-01-13T05:32:23.880Z,0.00
2019-01-13T05:33:23.859Z,0.00
2019-01-13T05:34:23.857Z,0.00
2019-01-13T05:35:23.837Z,0.00
2019-01-13T05:36:23.848Z,0.00
2019-01-13T05:37:23.814Z,0.00
2019-01-13T05:38:23.810Z,0.00
2019-01-13T05:39:23.789Z,0.00
2019-01-13T05:40:23.786Z,0.00
2019-01-13T05:41:23.800Z,0.00
2019-01-13T05:42:23.773Z,0.00
2019-01-13T05:43:23.822Z,0.00
2019-01-13T05:44:23.747Z,0.00
2019-01-13T05:45:23.751Z,0.00
2019-01-13T05:46:23.756Z,0.00
2019-01-13T05:47:23.736Z,0.00
2019-01-13T05:48:23.695Z,0.00
2019-01-13T05:49:23.693Z,0.00
2019-01-13T05:50:23.709Z,0.00
2019-01-13T05:51:23.695Z,0.00
2019-01-13T05:52:23.669Z,0.00
2019-01-13T05:53:23.646Z,0.00
2019-01-13T05:54:23.645Z,0.00
2019-01-13T05:55:23.624Z,0.00
2019-01-13T05:56:23.627Z,0.00
2019-01-13T05:57:23.604Z,0.00
2019-01-13T05:58:23.605Z,0.00
2019-01-13T05:59:23.581Z,0.00
2019-01-13T06:00:23.585Z,0.00
2019-01-13T06:01:23.574Z,0.00
2019-01-13T06:02:23.569Z,0.00
2019-01-13T06:03:23.551Z,0.00
2019-01-13T06:04:23.530Z,0.00
2019-01-13T06:05:23.519Z,0.00
2019-01-13T06:06:23.533Z,0.00
2019-01-13T06:07:23.507Z,0.00
2019-01-13T06:08:23.484Z,0.00
2019-01-13T06:09:23.472Z,0.00
2019-01-13T06:10:23.465Z,0.00
2019-01-13T06:11:23.465Z,0.00
2019-01-13T06:12:23.466Z,0.00
2019-01-13T06:13:23.431Z,0.00
2019-01-13T06:14:23.427Z,0.00
2019-01-13T06:15:23.410Z,0.00
2019-01-13T06:16:23.423Z,0.00
2019-01-13T06:17:23.386Z,0.00
2019-01-13T06:18:23.385Z,0.00
2019-01-13T06:19:23.364Z,0.00
2019-01-13T06:20:23.357Z,0.00
2019-01-13T06:21:23.356Z,0.00
2019-01-13T06:22:23.339Z,0.00
2019-01-13T06:23:23.320Z,0.00
2019-01-13T06:24:23.337Z,0.00
2019-01-13T06:25:23.307Z,0.00
2019-01-13T06:26:23.308Z,0.00
2019-01-13T06:27:23.329Z,0.00
2019-01-13T06:28:23.274Z,0.00
2019-01-13T06:29:23.286Z,0.00
2019-01-13T06:30:23.276Z,0.00
2019-01-13T06:31:23.267Z,0.00
2019-01-13T06:32:23.274Z,0.00
2019-01-13T06:33:23.306Z,0.00
2019-01-13T06:34:23.211Z,0.00
2019-01-13T06:35:23.188Z,0.00
2019-01-13T06:36:23.200Z,0.00
2019-01-13T06:37:23.189Z,0.00
2019-01-13T06:38:23.157Z,0.00
2019-01-13T06:39:23.165Z,0.00
2019-01-13T06:40:23.177Z,0.00
2019-01-13T06:41:23.157Z,0.00
2019-01-13T06:42:23.125Z,0.00
2019-01-13T06:43:23.117Z,0.00
2019-01-13T06:44:23.112Z,0.00
2019-01-13T06:45:23.084Z,0.00
2019-01-13T06:46:23.095Z,0.00
2019-01-13T06:47:23.075Z,0.00
2019-01-13T06:48:23.047Z,0.00
2019-01-13T06:49:23.049Z,0.00
2019-01-13T06:50:23.039Z,0.00
2019-01-13T06:51:23.036Z,0.00
2019-01-13T06:52:23.010Z,0.00
2019-01-13T06:53:23.015Z,0.00
2019-01-13T06:54:22.994Z,0.00
2019-01-13T06:55:22.977Z,0.00
2019-01-13T06:56:23.136Z,0.00
2019-01-13T06:57:22.980Z,0.00
2019-01-13T06:58:22.977Z,0.00
2019-01-13T06:59:22.956Z,0.00
2019-01-13T07:00:22.946Z,0.00
2019-01-13T07:01:22.921Z,0.00
2019-01-13T07:02:22.953Z,0.00
2019-01-13T07:03:22.899Z,0.00
2019-01-13T07:04:22.910Z,0.00
2019-01-13T07:05:22.881Z,0.00
2019-01-13T07:06:22.870Z,0.00
2019-01-13T07:07:22.874Z,0.00
2019-01-13T07:08:22.880Z,0.00
2019-01-13T07:09:22.867Z,0.00
2019-01-13T07:10:22.851Z,0.00
2019-01-13T07:11:22.838Z,0.00
2019-01-13T07:12:22.805Z,0.00
2019-01-13T07:13:22.813Z,0.00
2019-01-13T07:14:22.797Z,0.00
2019-01-13T07:15:22.771Z,0.00
2019-01-13T07:16:22.762Z,0.00
2019-01-13T07:17:22.770Z,0.00
2019-01-13T07:18:22.734Z,0.00
2019-01-13T07:19:22.770Z,0.00
2019-01-13T07:20:22.723Z,0.00
2019-01-13T07:21:22.710Z,0.00
2019-01-13T07:22:22.706Z,0.00
2019-01-13T07:23:22.719Z,0.00
2019-01-13T07:24:22.671Z,0.00
2019-01-13T07:25:22.652Z,0.00
2019-01-13T07:26:22.671Z,0.00
2019-01-13T07:27:22.643Z,0.00
2019-01-13T07:29:31.852Z,0.00
2019-01-13T07:30:32.828Z,0.00
2019-01-13T07:31:32.822Z,0.00
2019-01-13T07:32:32.854Z,0.00
2019-01-13T07:33:32.795Z,0.00
2019-01-13T07:34:32.776Z,0.00
2019-01-13T07:35:32.787Z,0.00
2019-01-13T07:36:32.763Z,0.00
2019-01-13T07:37:32.763Z,0.00
2019-01-13T07:38:32.749Z,0.00
2019-01-13T07:39:32.761Z,0.00
2019-01-13T07:40:32.719Z,0.00
2019-01-13T07:41:32.724Z,0.00
2019-01-13T07:42:32.699Z,0.00
2019-01-13T07:43:32.688Z,0.00
2019-01-13T07:44:32.671Z,0.00
2019-01-13T07:45:32.649Z,0.00
2019-01-13T07:46:32.648Z,0.00
2019-01-13T07:47:32.667Z,0.00
2019-01-13T07:48:32.643Z,0.00
2019-01-13T07:49:32.625Z,0.00
2019-01-13T07:50:32.594Z,0.00
2019-01-13T07:51:32.590Z,5.62
2019-01-13T07:52:32.599Z,0.00
2019-01-13T07:53:32.617Z,0.00
2019-01-13T07:54:32.570Z,0.00
2019-01-13T07:55:32.549Z,0.00
2019-01-13T07:56:32.540Z,5.62
2019-01-13T07:57:32.549Z,5.62
2019-01-13T07:58:32.520Z,0.00
2019-01-13T07:59:32.555Z,5.62
2019-01-13T08:00:32.521Z,5.62
2019-01-13T08:01:32.524Z,5.62
2019-01-13T08:02:32.500Z,5.62
2019-01-13T08:03:32.539Z,5.62
2019-01-13T08:04:32.454Z,5.62
2019-01-13T08:05:32.440Z,5.62
2019-01-13T08:06:32.437Z,5.62
2019-01-13T08:07:32.432Z,5.62
2019-01-13T08:08:32.409Z,5.62
2019-01-13T08:09:32.438Z,5.62
2019-01-13T08:10:32.381Z,5.62
2019-01-13T08:11:32.403Z,5.62
2019-01-13T08:12:32.435Z,5.62
2019-01-13T08:13:32.359Z,0.00
2019-01-13T08:14:32.345Z,0.00
2019-01-13T08:15:32.330Z,0.00
2019-01-13T08:16:32.341Z,0.00
2019-01-13T08:17:32.327Z,0.00
2019-01-13T08:18:32.307Z,5.62
2019-01-13T08:19:32.277Z,5.62
2019-01-13T08:20:32.308Z,5.62
2019-01-13T08:21:32.270Z,11.25
2019-01-13T08:22:32.278Z,11.25
2019-01-13T08:23:32.259Z,11.25
2019-01-13T08:24:32.232Z,11.25
2019-01-13T08:25:32.222Z,11.25
2019-01-13T08:26:32.216Z,11.25
2019-01-13T08:27:32.204Z,11.25
2019-01-13T08:28:32.186Z,11.25
2019-01-13T08:29:32.773Z,11.25
2019-01-13T08:30:32.195Z,11.25
2019-01-13T08:31:32.157Z,11.25
2019-01-13T08:32:32.155Z,11.25
2019-01-13T08:33:32.175Z,11.25
2019-01-13T08:34:32.127Z,11.25
2019-01-13T08:35:32.106Z,11.25
2019-01-13T08:36:32.133Z,5.62
2019-01-13T08:37:32.094Z,5.62
2019-01-13T08:38:32.074Z,11.25
2019-01-13T08:39:32.101Z,11.25
2019-01-13T08:40:32.065Z,11.25
2019-01-13T08:41:32.063Z,11.25
2019-01-13T08:42:32.034Z,11.25
2019-01-13T08:43:32.154Z,11.25
2019-01-13T08:44:32.031Z,16.88
2019-01-13T08:45:32.009Z,16.88
2019-01-13T08:46:31.991Z,22.50
2019-01-13T08:47:31.987Z,16.88
2019-01-13T08:48:31.978Z,16.88
2019-01-13T08:49:31.976Z,16.88
2019-01-13T08:50:31.939Z,16.88
2019-01-13T08:51:31.927Z,16.88
2019-01-13T08:52:31.920Z,11.25
2019-01-13T08:53:31.916Z,11.25
2019-01-13T08:54:31.937Z,11.25
2019-01-13T08:55:31.898Z,11.25
2019-01-13T08:56:31.877Z,11.25
2019-01-13T08:57:31.869Z,11.25
2019-01-13T08:58:31.887Z,11.25
2019-01-13T08:59:31.860Z,5.62
2019-01-13T09:00:31.857Z,11.25
2019-01-13T09:01:31.847Z,5.62
2019-01-13T09:02:32.313Z,5.62
2019-01-13T09:03:31.848Z,5.62
2019-01-13T09:04:31.800Z,5.62
2019-01-13T09:05:31.779Z,5.62
2019-01-13T09:06:31.787Z,5.62
2019-01-13T09:07:31.782Z,11.25
2019-01-13T09:08:31.764Z,11.25
2019-01-13T09:09:31.753Z,16.88
2019-01-13T09:10:31.714Z,16.88
2019-01-13T09:11:31.717Z,16.88
2019-01-13T09:12:31.700Z,16.88
2019-01-13T09:13:31.713Z,22.50
2019-01-13T09:14:31.743Z,28.12
2019-01-13T09:15:31.684Z,28.12
2019-01-13T09:16:31.654Z,28.12
2019-01-13T09:17:31.652Z,28.12
2019-01-13T09:18:31.649Z,28.12
2019-01-13T09:19:31.637Z,28.12
2019-01-13T09:20:31.610Z,28.12
2019-01-13T09:21:31.609Z,28.12
2019-01-13T09:22:31.607Z,28.12
2019-01-13T09:23:31.594Z,39.38
2019-01-13T09:24:31.573Z,39.38
2019-01-13T09:25:31.565Z,39.38
2019-01-13T09:26:31.556Z,39.38
2019-01-13T09:27:31.557Z,39.38
2019-01-13T09:28:31.542Z,45.00
2019-01-13T09:30:41.037Z,39.38
2019-01-13T09:31:42.000Z,39.38
2019-01-13T09:32:41.986Z,39.38
2019-01-13T09:33:42.025Z,39.38
2019-01-13T09:34:41.979Z,39.38
2019-01-13T09:35:41.955Z,39.38
2019-01-13T09:36:41.936Z,39.38
2019-01-13T09:37:41.930Z,45.00
2019-01-13T09:38:41.932Z,39.38
2019-01-13T09:39:41.924Z,39.38
2019-01-13T09:40:41.909Z,33.75
2019-01-13T09:41:41.892Z,33.75
2019-01-13T09:42:41.874Z,33.75
2019-01-13T09:43:41.874Z,33.75
2019-01-13T09:44:41.864Z,33.75
2019-01-13T09:45:41.844Z,39.38
2019-01-13T09:46:41.836Z,39.38
2019-01-13T09:47:41.834Z,39.38
2019-01-13T09:48:41.821Z,33.75
2019-01-13T09:49:41.809Z,33.75
2019-01-13T09:50:41.777Z,28.12
2019-01-13T09:51:41.796Z,28.12
2019-01-13T09:52:41.789Z,28.12
2019-01-13T09:53:41.777Z,33.75
2019-01-13T09:54:41.763Z,28.12
2019-01-13T09:55:41.747Z,33.75
2019-01-13T09:56:41.749Z,33.75
2019-01-13T09:57:41.712Z,33.75
2019-01-13T09:58:41.704Z,39.38
2019-01-13T09:59:41.708Z,39.38
2019-01-13T10:00:41.679Z,33.75
2019-01-13T10:01:41.692Z,45.00
2019-01-13T10:02:46.598Z,45.00
2019-01-13T10:03:41.662Z,50.62
2019-01-13T10:04:41.655Z,50.62
2019-01-13T10:05:41.628Z,45.00
2019-01-13T10:06:41.615Z,45.00
2019-01-13T10:07:42.518Z,39.38
2019-01-13T10:08:41.605Z,39.38
2019-01-13T10:09:41.593Z,39.38
2019-01-13T10:10:41.580Z,45.00
2019-01-13T10:11:41.580Z,50.62
2019-01-13T10:12:41.550Z,56.25
2019-01-13T10:13:41.544Z,61.88
2019-01-13T10:14:41.559Z,61.88
2019-01-13T10:15:41.518Z,61.88
2019-01-13T10:16:41.500Z,50.62
2019-01-13T10:17:41.512Z,56.25
2019-01-13T10:18:41.499Z,61.88
2019-01-13T10:19:41.487Z,61.88
2019-01-13T10:20:41.488Z,61.88
2019-01-13T10:21:41.447Z,61.88
2019-01-13T10:22:41.434Z,61.88
2019-01-13T10:23:41.434Z,67.50
2019-01-13T10:24:41.473Z,67.50
2019-01-13T10:25:41.408Z,73.12
2019-01-13T10:26:41.385Z,67.50
2019-01-13T10:27:41.406Z,67.50
2019-01-13T10:28:41.708Z,56.25
2019-01-13T10:29:41.375Z,50.62
2019-01-13T10:30:41.362Z,45.00
2019-01-13T10:31:41.337Z,56.25
2019-01-13T10:32:41.327Z,67.50
2019-01-13T10:33:41.326Z,78.75
2019-01-13T10:34:41.380Z,67.50
2019-01-13T10:35:41.290Z,84.38
2019-01-13T10:36:41.323Z,78.75
2019-01-13T10:37:41.271Z,84.38
2019-01-13T10:38:41.294Z,73.12
2019-01-13T10:39:41.260Z,73.12
2019-01-13T10:40:41.236Z,73.12
2019-01-13T10:41:41.230Z,73.12
2019-01-13T10:42:41.226Z,67.50
2019-01-13T10:43:41.243Z,56.25
2019-01-13T10:44:41.239Z,67.50
2019-01-13T10:45:41.247Z,73.12
2019-01-13T10:46:41.181Z,78.75
2019-01-13T10:47:41.169Z,84.38
2019-01-13T10:48:41.160Z,73.12
2019-01-13T10:49:41.167Z,67.50
2019-01-13T10:50:41.165Z,61.88
2019-01-13T10:51:41.121Z,73.12
2019-01-13T10:52:41.129Z,61.88
2019-01-13T10:53:41.121Z,50.62
2019-01-13T10:54:41.098Z,50.62
2019-01-13T10:55:41.137Z,56.25
2019-01-13T10:56:41.064Z,50.62
2019-01-13T10:57:41.069Z,56.25
2019-01-13T10:58:41.046Z,61.88
2019-01-13T10:59:41.051Z,61.88
2019-01-13T11:00:41.012Z,56.25
2019-01-13T11:01:41.005Z,61.88
2019-01-13T11:02:40.998Z,56.25
2019-01-13T11:03:40.977Z,61.88
2019-01-13T11:04:40.988Z,61.88
2019-01-13T11:05:40.988Z,61.88
2019-01-13T11:06:40.975Z,61.88
2019-01-13T11:07:40.947Z,61.88
2019-01-13T11:08:40.937Z,56.25
2019-01-13T11:09:40.981Z,50.62
2019-01-13T11:10:40.919Z,50.62
2019-01-13T11:11:40.916Z,56.25
2019-01-13T11:12:40.894Z,56.25
2019-01-13T11:13:40.886Z,56.25
2019-01-13T11:14:40.865Z,56.25
2019-01-13T11:15:40.860Z,67.50
2019-01-13T11:16:40.911Z,78.75
2019-01-13T11:17:40.875Z,67.50
2019-01-13T11:18:40.838Z,73.12
2019-01-13T11:19:40.823Z,67.50
2019-01-13T11:20:40.810Z,67.50
2019-01-13T11:21:40.802Z,67.50
2019-01-13T11:22:40.783Z,61.88
2019-01-13T11:23:40.785Z,73.12
2019-01-13T11:24:40.744Z,73.12
2019-01-13T11:25:40.763Z,73.12
2019-01-13T11:26:40.742Z,84.38
2019-01-13T11:27:40.756Z,78.75
2019-01-13T11:28:40.718Z,84.38
2019-01-13T11:29:40.715Z,90.00
2019-01-13T11:31:49.959Z,73.12
2019-01-13T11:32:50.927Z,73.12
2019-01-13T11:33:50.879Z,67.50
2019-01-13T11:34:50.864Z,78.75
2019-01-13T11:35:50.864Z,73.12
2019-01-13T11:36:50.865Z,73.12
2019-01-13T11:37:50.843Z,78.75
2019-01-13T11:38:50.814Z,67.50
2019-01-13T11:39:50.803Z,67.50
2019-01-13T11:40:50.812Z,67.50
2019-01-13T11:41:50.814Z,73.12
2019-01-13T11:42:50.796Z,67.50
2019-01-13T11:43:50.846Z,61.88
2019-01-13T11:44:50.765Z,56.25
2019-01-13T11:45:50.769Z,56.25
2019-01-13T11:46:50.783Z,61.88
2019-01-13T11:47:50.730Z,56.25
2019-01-13T11:48:50.780Z,61.88
2019-01-13T11:49:50.796Z,61.88
2019-01-13T11:50:50.701Z,67.50
2019-01-13T11:51:50.693Z,67.50
2019-01-13T11:52:50.687Z,73.12
2019-01-13T11:53:50.653Z,67.50
2019-01-13T11:54:50.637Z,67.50
2019-01-13T11:55:50.649Z,73.12
2019-01-13T11:56:50.656Z,61.88
2019-01-13T11:57:50.642Z,67.50
2019-01-13T11:58:50.593Z,67.50
2019-01-13T11:59:50.610Z,67.50
2019-01-13T12:00:50.572Z,73.12
2019-01-13T12:01:50.602Z,67.50
2019-01-13T12:02:50.564Z,61.88
2019-01-13T12:03:50.539Z,73.12
2019-01-13T12:04:50.537Z,61.88
2019-01-13T12:05:50.524Z,56.25
2019-01-13T12:06:50.522Z,50.62
2019-01-13T12:07:50.551Z,56.25
2019-01-13T12:08:50.517Z,56.25
2019-01-13T12:09:50.495Z,45.00
2019-01-13T12:10:50.470Z,45.00
2019-01-13T12:11:50.482Z,56.25
2019-01-13T12:12:50.447Z,50.62
2019-01-13T12:13:50.436Z,61.88
2019-01-13T12:14:50.439Z,56.25
2019-01-13T12:15:50.425Z,50.62
2019-01-13T12:16:50.414Z,61.88
2019-01-13T12:17:50.665Z,56.25
2019-01-13T12:18:50.405Z,56.25
2019-01-13T12:19:50.383Z,61.88
2019-01-13T12:20:50.363Z,61.88
2019-01-13T12:21:50.390Z,56.25
2019-01-13T12:22:50.400Z,56.25
2019-01-13T12:23:50.358Z,56.25
2019-01-13T12:24:50.309Z,56.25
2019-01-13T12:25:52.825Z,56.25
2019-01-13T12:26:50.318Z,67.50
2019-01-13T12:27:50.296Z,61.88
2019-01-13T12:28:50.286Z,56.25
2019-01-13T12:29:50.278Z,56.25
2019-01-13T12:30:50.249Z,56.25
2019-01-13T12:31:50.253Z,56.25
2019-01-13T12:32:50.236Z,56.25
2019-01-13T12:33:50.235Z,50.62
2019-01-13T12:34:50.254Z,45.00
2019-01-13T12:35:50.204Z,39.38
2019-01-13T12:36:50.207Z,39.38
2019-01-13T12:37:50.178Z,45.00
2019-01-13T12:38:50.168Z,45.00
2019-01-13T12:39:50.158Z,45.00
2019-01-13T12:40:50.146Z,45.00
2019-01-13T12:41:50.151Z,45.00
2019-01-13T12:42:50.164Z,39.38
2019-01-13T12:43:50.108Z,33.75
2019-01-13T12:44:50.096Z,39.38
2019-01-13T12:45:50.137Z,39.38
2019-01-13T12:46:50.105Z,45.00
2019-01-13T12:47:50.097Z,39.38
2019-01-13T12:48:50.105Z,50.62
2019-01-13T12:49:50.051Z,61.88
2019-01-13T12:50:50.052Z,56.25
2019-01-13T12:51:50.071Z,56.25
2019-01-13T12:52:50.041Z,56.25
2019-01-13T12:53:50.064Z,56.25
2019-01-13T12:54:51.586Z,56.25
2019-01-13T12:55:49.985Z,56.25
2019-01-13T12:56:50.006Z,67.50
2019-01-13T12:57:49.960Z,67.50
2019-01-13T12:58:50.036Z,67.50
2019-01-13T12:59:49.996Z,67.50
2019-01-13T13:00:49.964Z,56.25
2019-01-13T13:01:49.990Z,56.25
2019-01-13T13:02:49.926Z,45.00
2019-01-13T13:03:49.898Z,50.62
2019-01-13T13:04:49.924Z,45.00
2019-01-13T13:05:49.948Z,50.62
2019-01-13T13:06:49.874Z,50.62
2019-01-13T13:07:49.932Z,45.00
2019-01-13T13:08:49.875Z,45.00
2019-01-13T13:09:49.883Z,50.62
2019-01-13T13:10:49.856Z,45.00
2019-01-13T13:11:49.882Z,50.62
2019-01-13T13:12:49.849Z,39.38
2019-01-13T13:13:49.858Z,39.38
2019-01-13T13:14:49.817Z,45.00
2019-01-13T13:15:49.774Z,33.75